Time;durP1;ratioP1;P1;durP2;ratioP2;P2;SDS_P1;SDS_P2;PMS_P1;PMS_P2;Temp;Humidity;BMP_temperature;BMP_pressure;BME280_temperature;BME280_humidity;BME280_pressure;Samples;Min_cycle;Max_cycle;Signal;HPM_P1;HPM_P2
2023/07/30 00:01:59;;;;;;;2.63;2.30;;;;;;;;;;4950895;29;20221;-68
2023/07/30 00:04:26;;;;;;;2.07;1.63;;;;;;;;;;4953055;28;20202;-68
2023/07/30 00:06:53;;;;;;;2.67;1.97;;;;;;;;;;4952566;29;20225;-67
2023/07/30 00:09:21;;;;;;;2.10;1.70;;;;;;;;;;4952801;28;20197;-67
2023/07/30 00:11:48;;;;;;;3.50;1.90;;;;;;;;;;4952544;28;20193;-67
2023/07/30 00:14:14;;;;;;;3.00;2.37;;;;;;;;;;4952825;28;20229;-67
2023/07/30 00:16:41;;;;;;;3.30;2.10;;;;;;;;;;4951277;28;20600;-67
2023/07/30 00:19:25;;;;;;;2.00;1.80;;;;;;;;;;4952677;29;20529;-67
2023/07/30 00:21:52;;;;;;;3.60;1.90;;;;;;;;;;4952592;29;20277;-67
2023/07/30 00:24:36;;;;;;;5.03;2.00;;;;;;;;;;4952736;29;20186;-67
2023/07/30 00:27:04;;;;;;;2.37;1.80;;;;;;;;;;4950954;29;20186;-67
2023/07/30 00:29:48;;;;;;;3.33;2.03;;;;;;;;;;4952635;29;20181;-68
2023/07/30 00:32:16;;;;;;;2.87;2.20;;;;;;;;;;4951016;28;20194;-67
2023/07/30 00:35:01;;;;;;;2.20;1.93;;;;;;;;;;4937704;29;20178;-68
2023/07/30 00:37:29;;;;;;;2.20;2.00;;;;;;;;;;4934977;29;20197;-67
2023/07/30 00:40:13;;;;;;;2.67;2.47;;;;;;;;;;4950824;29;20280;-67
2023/07/30 00:42:40;;;;;;;2.30;1.90;;;;;;;;;;4952046;29;20193;-68
2023/07/30 00:45:09;;;;;;;3.57;2.30;;;;;;;;;;4952156;29;20197;-68
2023/07/30 00:47:37;;;;;;;2.80;2.10;;;;;;;;;;4952050;29;20265;-67
2023/07/30 00:50:05;;;;;;;3.00;2.20;;;;;;;;;;4950507;28;20685;-68
2023/07/30 00:52:33;;;;;;;2.70;2.33;;;;;;;;;;4951937;29;20646;-67
2023/07/30 00:55:03;;;;;;;2.87;2.03;;;;;;;;;;4951594;29;20206;-68
2023/07/30 00:57:32;;;;;;;2.50;2.20;;;;;;;;;;4934503;29;20200;-67
2023/07/30 01:00:16;;;;;;;2.77;2.10;;;;;;;;;;4951972;29;20278;-68
2023/07/30 01:02:43;;;;;;;2.97;2.20;;;;;;;;;;4934896;29;20277;-67
2023/07/30 01:05:28;;;;;;;8.53;2.70;;;;;;;;;;4950462;28;20186;-67
2023/07/30 01:07:55;;;;;;;3.27;2.50;;;;;;;;;;4951332;29;20570;-68
2023/07/30 01:10:22;;;;;;;4.87;2.70;;;;;;;;;;4950262;29;20210;-68
2023/07/30 01:44:45;;;;;;;3.13;2.77;;;;;;;;;;4951020;29;20233;-68
2023/07/30 01:47:30;;;;;;;4.33;3.03;;;;;;;;;;4949968;29;20230;-67
2023/07/30 01:49:56;;;;;;;4.07;2.80;;;;;;;;;;4950001;29;20217;-68
2023/07/30 01:52:41;;;;;;;5.03;2.67;;;;;;;;;;4951307;29;20181;-67
2023/07/30 01:55:07;;;;;;;2.73;2.53;;;;;;;;;;4933922;29;20733;-68
2023/07/30 01:57:34;;;;;;;3.13;2.83;;;;;;;;;;4950981;29;20669;-67
2023/07/30 02:00:01;;;;;;;3.70;2.70;;;;;;;;;;4951082;29;20306;-68
2023/07/30 02:02:28;;;;;;;3.60;3.00;;;;;;;;;;4934225;29;20253;-67
2023/07/30 02:04:55;;;;;;;3.30;3.00;;;;;;;;;;4933818;29;20206;-68
2023/07/30 02:07:22;;;;;;;3.63;2.73;;;;;;;;;;4951018;29;20199;-68
2023/07/30 02:09:49;;;;;;;4.00;3.07;;;;;;;;;;4933849;29;20203;-68
2023/07/30 02:12:15;;;;;;;3.70;3.40;;;;;;;;;;4949786;28;20260;-69
2023/07/30 02:14:43;;;;;;;3.57;2.70;;;;;;;;;;4950254;29;20197;-68
2023/07/30 02:17:10;;;;;;;3.80;3.10;;;;;;;;;;4951371;29;20198;-68
2023/07/30 02:19:54;;;;;;;3.40;3.10;;;;;;;;;;4951047;29;20541;-68
2023/07/30 02:22:21;;;;;;;3.47;3.17;;;;;;;;;;4949595;29;20285;-67
2023/07/30 02:24:47;;;;;;;4.93;2.80;;;;;;;;;;4951110;29;20257;-68
2023/07/30 02:27:14;;;;;;;3.63;2.90;;;;;;;;;;4949207;29;21003;-67
2023/07/30 02:29:41;;;;;;;4.67;3.10;;;;;;;;;;4949289;28;20202;-68
2023/07/30 02:32:25;;;;;;;4.10;3.20;;;;;;;;;;4949898;29;20178;-67
2023/07/30 02:34:52;;;;;;;5.87;3.50;;;;;;;;;;4933700;29;20238;-68
2023/07/30 02:37:19;;;;;;;3.53;3.00;;;;;;;;;;4949768;28;20264;-67
2023/07/30 02:39:46;;;;;;;5.80;3.90;;;;;;;;;;4936830;29;20229;-68
2023/07/30 02:42:13;;;;;;;5.20;3.30;;;;;;;;;;4954089;29;20277;-68
2023/07/30 02:44:39;;;;;;;4.03;3.60;;;;;;;;;;4954531;28;20241;-68
2023/07/30 02:47:06;;;;;;;3.73;3.43;;;;;;;;;;4952807;28;20234;-68
2023/07/30 02:49:33;;;;;;;4.67;3.93;;;;;;;;;;4953951;29;20249;-68
2023/07/30 02:51:59;;;;;;;4.33;3.40;;;;;;;;;;4954453;29;20201;-68
2023/07/30 02:54:26;;;;;;;4.73;3.77;;;;;;;;;;4953854;29;20202;-68
2023/07/30 02:56:53;;;;;;;6.03;4.20;;;;;;;;;;4952543;29;20206;-68
2023/07/30 02:59:19;;;;;;;5.00;4.23;;;;;;;;;;4952936;29;20222;-68
2023/07/30 03:01:46;;;;;;;4.80;4.30;;;;;;;;;;4952340;29;20197;-68
2023/07/30 03:04:13;;;;;;;6.27;4.77;;;;;;;;;;4950972;28;20201;-68
2023/07/30 03:06:57;;;;;;;5.87;5.23;;;;;;;;;;4939877;28;20289;-68
2023/07/30 03:09:24;;;;;;;6.80;4.90;;;;;;;;;;4953450;29;20670;-68
2023/07/30 03:11:51;;;;;;;5.60;5.10;;;;;;;;;;4953445;29;21023;-68
2023/07/30 03:14:20;;;;;;;6.80;4.93;;;;;;;;;;4936107;29;20202;-68
2023/07/30 03:16:47;;;;;;;5.87;5.10;;;;;;;;;;4952279;29;20198;-68
2023/07/30 03:19:14;;;;;;;6.47;5.40;;;;;;;;;;4935341;29;20190;-68
2023/07/30 03:21:41;;;;;;;6.70;4.87;;;;;;;;;;4952368;29;20257;-68
2023/07/30 03:24:08;;;;;;;7.50;5.60;;;;;;;;;;4952987;29;20194;-69
2023/07/30 03:26:52;;;;;;;6.37;5.07;;;;;;;;;;4951675;28;20205;-68
2023/07/30 03:29:18;;;;;;;7.13;5.00;;;;;;;;;;4934364;29;20228;-68
2023/07/30 03:31:45;;;;;;;6.57;5.03;;;;;;;;;;4952077;29;20202;-68
2023/07/30 03:34:12;;;;;;;5.97;4.90;;;;;;;;;;4937186;29;20861;-68
2023/07/30 03:36:39;;;;;;;7.93;5.70;;;;;;;;;;4953434;29;20197;-68
2023/07/30 03:39:05;;;;;;;7.27;5.60;;;;;;;;;;4934471;29;20192;-68
2023/07/30 03:41:32;;;;;;;6.57;5.10;;;;;;;;;;4952271;29;20194;-68
2023/07/30 03:43:59;;;;;;;7.03;5.67;;;;;;;;;;4951049;28;20288;-68
2023/07/30 03:46:43;;;;;;;6.93;5.97;;;;;;;;;;4952182;29;20225;-68
2023/07/30 03:49:10;;;;;;;7.20;5.90;;;;;;;;;;4950414;28;20261;-69
2023/07/30 03:51:38;;;;;;;7.93;5.80;;;;;;;;;;4934776;29;20253;-68
2023/07/30 03:54:05;;;;;;;7.40;6.03;;;;;;;;;;4952583;29;20202;-68
2023/07/30 03:56:32;;;;;;;8.23;6.83;;;;;;;;;;4934914;29;20201;-68
2023/07/30 03:58:59;;;;;;;7.23;6.53;;;;;;;;;;4934780;29;20253;-68
2023/07/30 04:01:25;;;;;;;9.27;7.40;;;;;;;;;;4935863;29;20288;-68
2023/07/30 04:03:52;;;;;;;8.50;7.33;;;;;;;;;;4951106;29;20202;-68
2023/07/30 04:06:36;;;;;;;8.87;6.97;;;;;;;;;;4951187;28;20175;-68
2023/07/30 04:09:03;;;;;;;9.00;8.07;;;;;;;;;;4951787;29;20218;-68
2023/07/30 04:11:30;;;;;;;10.13;8.43;;;;;;;;;;4951629;29;20202;-68
2023/07/30 04:13:56;;;;;;;8.87;7.97;;;;;;;;;;4951578;29;20574;-68
2023/07/30 04:16:23;;;;;;;9.83;7.90;;;;;;;;;;4951150;29;20201;-68
2023/07/30 04:19:07;;;;;;;9.73;8.73;;;;;;;;;;4950893;29;20182;-68
2023/07/30 04:21:34;;;;;;;10.07;9.00;;;;;;;;;;4949824;28;20276;-68
2023/07/30 04:24:02;;;;;;;9.80;8.77;;;;;;;;;;4951343;29;20306;-68
2023/07/30 04:26:28;;;;;;;10.27;9.07;;;;;;;;;;4951713;29;20747;-69
2023/07/30 04:28:55;;;;;;;9.80;8.73;;;;;;;;;;4952015;29;20625;-69
2023/07/30 04:31:22;;;;;;;10.97;8.87;;;;;;;;;;4917950;29;20208;-69
2023/07/30 04:33:49;;;;;;;11.13;8.23;;;;;;;;;;4933901;29;20198;-68
2023/07/30 04:36:16;;;;;;;9.50;8.50;;;;;;;;;;4933430;29;20288;-68
2023/07/30 04:38:47;;;;;;;10.03;9.03;;;;;;;;;;4930646;29;20265;-68
2023/07/30 04:41:14;;;;;;;12.17;9.67;;;;;;;;;;4934897;29;20662;-68
2023/07/30 04:43:46;;;;;;;10.20;9.03;;;;;;;;;;4919182;29;20205;-68
2023/07/30 04:46:14;;;;;;;10.50;8.90;;;;;;;;;;4933635;29;20650;-68
2023/07/30 04:48:41;;;;;;;10.53;8.97;;;;;;;;;;4932565;29;20226;-68
2023/07/30 04:51:09;;;;;;;10.17;9.03;;;;;;;;;;4933655;29;20285;-68
2023/07/30 04:53:53;;;;;;;9.47;8.40;;;;;;;;;;4937504;28;20182;-68
2023/07/30 04:56:20;;;;;;;9.83;8.40;;;;;;;;;;4946559;28;20225;-68
2023/07/30 04:58:47;;;;;;;11.30;8.90;;;;;;;;;;4951878;28;20222;-68
2023/07/30 05:01:13;;;;;;;10.97;9.07;;;;;;;;;;4932300;29;20194;-68
2023/07/30 05:03:40;;;;;;;10.67;8.60;;;;;;;;;;4948632;28;20202;-68
2023/07/30 05:06:07;;;;;;;11.80;8.43;;;;;;;;;;4949980;29;20633;-68
2023/07/30 05:08:34;;;;;;;9.97;8.97;;;;;;;;;;4949625;29;20249;-68
2023/07/30 05:11:00;;;;;;;11.97;9.50;;;;;;;;;;4938106;29;20688;-68
2023/07/30 05:13:27;;;;;;;9.27;8.00;;;;;;;;;;4950084;28;20191;-70
2023/07/30 05:15:53;;;;;;;10.23;8.73;;;;;;;;;;4949948;29;20536;-68
2023/07/30 05:18:20;;;;;;;9.70;7.90;;;;;;;;;;4950362;28;20221;-68
2023/07/30 05:20:47;;;;;;;14.80;9.47;;;;;;;;;;4950562;28;20276;-68
2023/07/30 05:23:14;;;;;;;10.77;8.97;;;;;;;;;;4950541;29;20333;-67
2023/07/30 05:25:41;;;;;;;11.43;9.00;;;;;;;;;;4950889;28;20217;-68
2023/07/30 05:28:07;;;;;;;11.57;9.67;;;;;;;;;;4949661;28;20649;-68
2023/07/30 05:30:34;;;;;;;10.53;9.33;;;;;;;;;;4950634;28;20533;-68
2023/07/30 05:33:01;;;;;;;14.40;10.10;;;;;;;;;;4950272;29;20290;-68
2023/07/30 05:35:27;;;;;;;12.30;10.00;;;;;;;;;;4951041;29;20195;-69
2023/07/30 05:37:58;;;;;;;13.57;8.73;;;;;;;;;;4950132;28;20682;-61
2023/07/30 05:40:25;;;;;;;13.60;9.27;;;;;;;;;;4950366;29;20221;-61
2023/07/30 05:42:51;;;;;;;12.67;9.20;;;;;;;;;;4950402;29;20801;-67
2023/07/30 05:45:18;;;;;;;12.07;9.33;;;;;;;;;;4940506;28;20193;-67
2023/07/30 05:47:45;;;;;;;12.33;9.87;;;;;;;;;;4938843;29;20277;-67
2023/07/30 05:50:13;;;;;;;12.37;9.03;;;;;;;;;;4947743;28;20214;-66
2023/07/30 05:52:40;;;;;;;11.67;9.40;;;;;;;;;;4950451;29;20190;-67
2023/07/30 05:55:06;;;;;;;12.37;10.23;;;;;;;;;;4949552;29;20190;-65
2023/07/30 05:57:33;;;;;;;13.37;10.13;;;;;;;;;;4952471;29;20193;-66
2023/07/30 06:00:00;;;;;;;12.33;10.00;;;;;;;;;;4950856;29;20190;-67
2023/07/30 06:02:37;;;;;;;12.70;9.30;;;;;;;;;;4941739;29;20198;-61
2023/07/30 06:05:06;;;;;;;14.27;9.20;;;;;;;;;;4950746;28;20201;-65
2023/07/30 06:07:33;;;;;;;13.53;9.80;;;;;;;;;;4949489;29;20198;-63
2023/07/30 06:10:00;;;;;;;12.30;9.60;;;;;;;;;;4951239;29;20229;-65
2023/07/30 06:12:26;;;;;;;12.07;9.83;;;;;;;;;;4936153;29;21267;-65
2023/07/30 06:14:53;;;;;;;11.47;9.60;;;;;;;;;;4956320;29;20224;-64
2023/07/30 06:17:20;;;;;;;12.73;9.13;;;;;;;;;;4955666;29;20245;-64
2023/07/30 06:19:49;;;;;;;12.33;9.50;;;;;;;;;;4953502;28;20274;-65
2023/07/30 06:22:16;;;;;;;11.07;9.33;;;;;;;;;;4949413;29;20250;-66
2023/07/30 06:24:43;;;;;;;10.30;8.70;;;;;;;;;;4945843;29;20190;-66
2023/07/30 06:27:12;;;;;;;10.37;8.77;;;;;;;;;;4953720;29;20189;-67
2023/07/30 06:29:39;;;;;;;9.40;7.77;;;;;;;;;;4953770;29;20817;-66
2023/07/30 06:32:06;;;;;;;11.27;8.57;;;;;;;;;;4951739;29;20220;-66
2023/07/30 06:34:33;;;;;;;9.83;8.30;;;;;;;;;;4954129;29;20696;-66
2023/07/30 06:37:00;;;;;;;11.33;8.23;;;;;;;;;;4954416;29;20237;-66
2023/07/30 06:39:27;;;;;;;11.67;8.27;;;;;;;;;;4954677;29;20198;-66
2023/07/30 06:41:53;;;;;;;11.93;7.60;;;;;;;;;;4954309;29;20213;-66
2023/07/30 06:44:20;;;;;;;11.00;7.10;;;;;;;;;;4954738;29;20249;-66
2023/07/30 06:46:47;;;;;;;10.70;6.27;;;;;;;;;;4954229;28;20582;-66
2023/07/30 06:49:14;;;;;;;9.13;7.13;;;;;;;;;;4954218;29;20605;-67
2023/07/30 06:51:41;;;;;;;9.50;7.10;;;;;;;;;;4954334;29;20302;-66
2023/07/30 06:54:08;;;;;;;8.57;7.10;;;;;;;;;;4953956;29;20658;-67
2023/07/30 06:56:35;;;;;;;8.87;6.00;;;;;;;;;;4954224;29;20198;-66
2023/07/30 06:59:01;;;;;;;7.13;5.47;;;;;;;;;;4954241;29;20198;-66
2023/07/30 07:01:28;;;;;;;8.20;4.90;;;;;;;;;;4954200;29;20721;-66
2023/07/30 07:03:55;;;;;;;6.37;5.00;;;;;;;;;;4953905;29;20302;-66
2023/07/30 07:06:22;;;;;;;6.20;4.70;;;;;;;;;;4936904;29;20186;-66
2023/07/30 07:08:48;;;;;;;9.87;4.97;;;;;;;;;;4954197;29;20218;-66
2023/07/30 07:11:32;;;;;;;5.47;4.00;;;;;;;;;;4953879;29;20650;-66
2023/07/30 07:13:59;;;;;;;6.37;4.30;;;;;;;;;;4953972;29;20220;-66
2023/07/30 07:16:26;;;;;;;5.87;4.43;;;;;;;;;;4953512;29;20570;-66
2023/07/30 07:18:52;;;;;;;5.40;4.07;;;;;;;;;;4954174;29;20193;-66
2023/07/30 07:21:20;;;;;;;6.47;4.20;;;;;;;;;;4955127;29;20197;-66
2023/07/30 07:24:04;;;;;;;5.67;4.13;;;;;;;;;;4954273;28;20574;-66
2023/07/30 07:26:31;;;;;;;6.20;4.03;;;;;;;;;;4953846;29;20955;-66
2023/07/30 07:28:58;;;;;;;6.70;4.23;;;;;;;;;;4953703;29;20715;-66
2023/07/30 07:31:24;;;;;;;5.03;4.13;;;;;;;;;;4953289;29;20277;-66
2023/07/30 07:33:53;;;;;;;7.93;4.63;;;;;;;;;;4953478;29;20204;-66
2023/07/30 07:36:20;;;;;;;4.47;3.93;;;;;;;;;;4953456;29;20205;-66
2023/07/30 07:38:47;;;;;;;4.70;4.20;;;;;;;;;;4953906;29;20198;-66
2023/07/30 07:41:16;;;;;;;5.40;3.50;;;;;;;;;;4953404;29;20268;-67
2023/07/30 07:44:00;;;;;;;4.80;3.47;;;;;;;;;;4953399;29;20712;-65
2023/07/30 07:46:27;;;;;;;5.73;3.90;;;;;;;;;;4953078;29;20304;-66
2023/07/30 07:49:11;;;;;;;4.40;3.63;;;;;;;;;;4953233;29;20202;-66
2023/07/30 07:51:38;;;;;;;6.73;3.77;;;;;;;;;;4936163;29;20214;-66
2023/07/30 07:54:22;;;;;;;4.87;3.47;;;;;;;;;;4952955;29;20186;-66
2023/07/30 07:56:49;;;;;;;5.40;3.50;;;;;;;;;;4936030;29;20190;-66
2023/07/30 07:59:33;;;;;;;3.50;3.10;;;;;;;;;;4953365;29;20175;-66
2023/07/30 08:01:59;;;;;;;3.73;3.27;;;;;;;;;;4953126;29;20622;-66
2023/07/30 08:04:26;;;;;;;6.47;3.20;;;;;;;;;;4952980;29;20200;-66
2023/07/30 08:06:53;;;;;;;3.23;2.70;;;;;;;;;;4952727;29;20245;-66
2023/07/30 08:09:20;;;;;;;4.17;3.30;;;;;;;;;;4952753;29;20220;-66
2023/07/30 08:11:46;;;;;;;3.40;3.00;;;;;;;;;;4954226;29;20272;-66
2023/07/30 08:14:13;;;;;;;8.83;3.70;;;;;;;;;;4954133;28;20198;-66
2023/07/30 08:16:40;;;;;;;4.50;3.30;;;;;;;;;;4954112;29;20193;-66
2023/07/30 08:19:26;;;;;;;4.60;3.37;;;;;;;;;;4952472;29;20184;-66
2023/07/30 08:21:53;;;;;;;4.37;3.40;;;;;;;;;;4952603;29;20186;-66
2023/07/30 08:24:37;;;;;;;3.53;3.00;;;;;;;;;;4952733;29;20201;-66
2023/07/30 08:27:04;;;;;;;3.77;3.27;;;;;;;;;;4952198;29;20186;-66
2023/07/30 08:29:31;;;;;;;4.30;2.90;;;;;;;;;;4952681;29;21146;-66
2023/07/30 08:31:58;;;;;;;2.77;2.50;;;;;;;;;;4952368;29;20235;-67
2023/07/30 08:34:25;;;;;;;3.60;3.00;;;;;;;;;;4952420;29;20190;-66
2023/07/30 08:37:09;;;;;;;4.30;3.00;;;;;;;;;;4952143;28;20172;-66
2023/07/30 08:39:36;;;;;;;4.70;3.07;;;;;;;;;;4952346;29;20688;-66
2023/07/30 08:42:04;;;;;;;4.03;2.60;;;;;;;;;;4953177;29;20198;-67
2023/07/30 08:44:30;;;;;;;3.57;2.77;;;;;;;;;;4953784;29;20682;-66
2023/07/30 08:46:57;;;;;;;4.40;2.30;;;;;;;;;;4953038;29;20232;-66
2023/07/30 08:49:41;;;;;;;4.10;2.80;;;;;;;;;;4951980;29;20333;-66
2023/07/30 08:52:09;;;;;;;3.60;3.07;;;;;;;;;;4952177;29;20224;-66
2023/07/30 08:54:53;;;;;;;5.00;3.13;;;;;;;;;;4943061;29;20531;-66
2023/07/30 08:57:20;;;;;;;4.57;2.57;;;;;;;;;;4932560;29;20828;-66
2023/07/30 09:00:11;;;;;;;3.27;2.60;;;;;;;;;;4918513;29;20261;-66
2023/07/30 09:02:38;;;;;;;6.10;3.10;;;;;;;;;;4932019;29;20191;-66
2023/07/30 09:05:05;;;;;;;3.43;2.30;;;;;;;;;;4932504;29;20195;-67
2023/07/30 09:07:32;;;;;;;4.23;2.70;;;;;;;;;;4932481;29;20234;-66
2023/07/30 09:09:59;;;;;;;3.07;2.23;;;;;;;;;;4932578;29;20761;-67
2023/07/30 09:12:43;;;;;;;3.07;2.47;;;;;;;;;;4932192;29;20201;-66
2023/07/30 09:15:14;;;;;;;4.03;2.43;;;;;;;;;;4932421;29;20231;-66
2023/07/30 09:17:59;;;;;;;5.37;2.80;;;;;;;;;;4932785;29;20242;-67
2023/07/30 09:20:26;;;;;;;3.13;2.40;;;;;;;;;;4932772;29;20191;-66
2023/07/30 09:22:55;;;;;;;3.70;2.37;;;;;;;;;;4932341;29;20194;-66
2023/07/30 09:25:22;;;;;;;2.53;2.03;;;;;;;;;;4932630;29;20273;-66
2023/07/30 09:27:52;;;;;;;5.27;2.00;;;;;;;;;;4932271;29;20204;-66
2023/07/30 09:30:23;;;;;;;2.73;2.00;;;;;;;;;;4932350;29;20229;-66
2023/07/30 09:32:51;;;;;;;5.53;2.10;;;;;;;;;;4932203;29;20540;-66
2023/07/30 09:35:17;;;;;;;4.10;2.37;;;;;;;;;;4932655;29;20195;-66
2023/07/30 09:37:44;;;;;;;3.50;1.80;;;;;;;;;;4932056;29;20257;-66
2023/07/30 09:40:12;;;;;;;4.33;2.20;;;;;;;;;;4932273;29;20952;-66
2023/07/30 09:42:44;;;;;;;3.00;1.90;;;;;;;;;;4899715;29;20540;-66
2023/07/30 09:45:21;;;;;;;3.50;2.00;;;;;;;;;;4932226;29;20187;-66
2023/07/30 09:47:48;;;;;;;3.77;2.00;;;;;;;;;;4931514;29;20230;-66
2023/07/30 09:50:36;;;;;;;2.40;2.00;;;;;;;;;;4932155;29;20212;-66
2023/07/30 09:53:05;;;;;;;3.00;2.03;;;;;;;;;;4931837;29;20198;-66
2023/07/30 09:55:32;;;;;;;2.77;1.80;;;;;;;;;;4946043;29;20200;-67
2023/07/30 09:57:58;;;;;;;3.13;1.90;;;;;;;;;;4951035;28;20198;-67
2023/07/30 10:00:25;;;;;;;2.73;1.80;;;;;;;;;;4934264;29;20601;-67
2023/07/30 10:02:52;;;;;;;2.67;1.80;;;;;;;;;;4934089;29;20186;-67
2023/07/30 10:05:19;;;;;;;2.30;2.07;;;;;;;;;;4951664;29;20557;-67
2023/07/30 10:08:05;;;;;;;3.43;1.87;;;;;;;;;;4933866;29;20231;-67
2023/07/30 10:10:31;;;;;;;2.60;1.97;;;;;;;;;;4951045;29;20212;-66
2023/07/30 10:12:59;;;;;;;2.00;1.80;;;;;;;;;;4950919;29;20276;-67
2023/07/30 10:15:25;;;;;;;2.53;1.83;;;;;;;;;;4934108;29;20198;-66
2023/07/30 10:17:52;;;;;;;3.73;2.10;;;;;;;;;;4918380;29;20202;-67
2023/07/30 10:20:20;;;;;;;2.43;1.60;;;;;;;;;;4934215;29;20202;-66
2023/07/30 10:22:53;;;;;;;2.97;2.00;;;;;;;;;;4950717;29;20222;-67
2023/07/30 10:25:21;;;;;;;2.17;1.97;;;;;;;;;;4951094;29;20194;-67
2023/07/30 10:27:49;;;;;;;2.43;1.80;;;;;;;;;;4933683;29;20831;-67
2023/07/30 10:30:16;;;;;;;2.57;2.00;;;;;;;;;;4950904;29;20268;-66
2023/07/30 10:32:55;;;;;;;3.37;1.90;;;;;;;;;;4950657;29;20307;-67
2023/07/30 10:35:41;;;;;;;2.53;1.80;;;;;;;;;;4951208;28;20206;-66
2023/07/30 10:38:27;;;;;;;2.87;1.83;;;;;;;;;;4950925;29;20198;-67
2023/07/30 10:41:01;;;;;;;2.57;1.50;;;;;;;;;;4950675;28;20202;-67
2023/07/30 10:43:29;;;;;;;3.67;1.40;;;;;;;;;;4950604;29;20729;-67
2023/07/30 10:45:56;;;;;;;2.40;1.37;;;;;;;;;;4951131;29;20210;-67
2023/07/30 10:48:30;;;;;;;2.17;1.60;;;;;;;;;;4950521;29;20222;-66
2023/07/30 10:51:16;;;;;;;2.90;1.80;;;;;;;;;;4950487;29;20201;-67
2023/07/30 10:53:43;;;;;;;3.50;1.70;;;;;;;;;;4950800;29;20194;-67
2023/07/30 10:56:10;;;;;;;2.97;1.70;;;;;;;;;;4932180;29;20250;-66
2023/07/30 10:58:36;;;;;;;1.93;1.70;;;;;;;;;;4914546;29;20191;-66
2023/07/30 11:01:07;;;;;;;3.23;1.77;;;;;;;;;;4917407;29;20257;-67
2023/07/30 11:03:34;;;;;;;1.67;1.57;;;;;;;;;;4934714;29;20201;-66
2023/07/30 11:06:01;;;;;;;2.20;1.80;;;;;;;;;;4917801;29;20940;-67
2023/07/30 11:08:40;;;;;;;4.00;1.60;;;;;;;;;;4935273;29;20246;-67
2023/07/30 11:11:25;;;;;;;3.40;1.83;;;;;;;;;;4934936;29;20226;-66
2023/07/30 11:13:54;;;;;;;3.47;1.77;;;;;;;;;;4918116;29;20277;-66
2023/07/30 11:16:22;;;;;;;3.17;2.23;;;;;;;;;;4934681;29;20987;-66
2023/07/30 11:18:48;;;;;;;3.90;2.47;;;;;;;;;;4917700;29;20191;-67
2023/07/30 11:21:17;;;;;;;5.40;2.53;;;;;;;;;;4934667;29;20266;-66
2023/07/30 11:23:44;;;;;;;4.43;2.37;;;;;;;;;;4934301;29;20199;-67
2023/07/30 11:26:14;;;;;;;6.70;2.87;;;;;;;;;;4934824;29;20187;-66
2023/07/30 11:28:42;;;;;;;5.23;2.40;;;;;;;;;;4934188;29;20214;-67
2023/07/30 11:31:16;;;;;;;5.67;2.90;;;;;;;;;;4934312;29;20235;-66
2023/07/30 11:33:43;;;;;;;4.53;2.77;;;;;;;;;;4934086;29;20195;-66
2023/07/30 11:36:12;;;;;;;4.87;2.90;;;;;;;;;;4934622;29;20195;-66
2023/07/30 11:38:39;;;;;;;7.07;3.07;;;;;;;;;;4917779;29;20206;-66
2023/07/30 11:41:06;;;;;;;5.30;2.30;;;;;;;;;;4917383;29;20183;-66
2023/07/30 11:43:32;;;;;;;5.77;2.70;;;;;;;;;;4916867;29;20202;-66
2023/07/30 11:46:30;;;;;;;6.13;3.50;;;;;;;;;;4934204;29;20558;-66
2023/07/30 11:49:15;;;;;;;6.50;3.20;;;;;;;;;;4926274;29;20191;-66
2023/07/30 11:51:42;;;;;;;5.07;2.93;;;;;;;;;;4933972;29;20215;-67
2023/07/30 11:54:18;;;;;;;4.10;3.03;;;;;;;;;;4936995;29;20202;-66
2023/07/30 11:56:45;;;;;;;4.10;3.07;;;;;;;;;;4951531;29;20748;-67
2023/07/30 11:59:12;;;;;;;4.43;2.50;;;;;;;;;;4953331;29;20301;-66
2023/07/30 12:01:38;;;;;;;4.37;3.00;;;;;;;;;;4952832;29;20198;-68
2023/07/30 12:04:06;;;;;;;5.07;2.77;;;;;;;;;;4952931;29;20194;-67
2023/07/30 12:06:39;;;;;;;3.90;2.80;;;;;;;;;;4952750;28;20210;-66
2023/07/30 12:09:13;;;;;;;4.90;2.80;;;;;;;;;;4952843;29;20426;-66
2023/07/30 12:11:49;;;;;;;3.53;2.70;;;;;;;;;;4935533;29;20221;-66
2023/07/30 12:14:15;;;;;;;4.53;2.50;;;;;;;;;;4952996;29;20193;-66
2023/07/30 12:16:42;;;;;;;4.57;2.70;;;;;;;;;;4952701;29;20188;-67
2023/07/30 12:19:09;;;;;;;2.77;2.30;;;;;;;;;;4952678;29;20225;-67
2023/07/30 12:21:36;;;;;;;2.30;2.10;;;;;;;;;;4952573;29;20311;-67
2023/07/30 12:24:22;;;;;;;3.20;2.30;;;;;;;;;;4952668;29;20175;-66
2023/07/30 12:26:49;;;;;;;2.87;2.30;;;;;;;;;;4952495;29;20186;-66
2023/07/30 12:29:33;;;;;;;3.73;2.53;;;;;;;;;;4952529;29;20259;-66
2023/07/30 12:31:59;;;;;;;3.27;2.13;;;;;;;;;;4952516;29;20228;-66
2023/07/30 12:34:30;;;;;;;4.80;2.53;;;;;;;;;;4951183;28;20211;-66
2023/07/30 12:36:57;;;;;;;3.57;2.30;;;;;;;;;;4952400;29;20892;-66
2023/07/30 12:39:24;;;;;;;4.17;2.23;;;;;;;;;;4952174;29;20605;-67
2023/07/30 12:41:51;;;;;;;3.17;2.20;;;;;;;;;;4952448;29;20196;-66
2023/07/30 12:44:18;;;;;;;2.17;1.97;;;;;;;;;;4952450;29;20194;-66
2023/07/30 12:46:45;;;;;;;3.37;2.13;;;;;;;;;;4951988;28;20237;-66
2023/07/30 12:49:12;;;;;;;2.87;2.20;;;;;;;;;;4952174;29;20694;-67
2023/07/30 12:51:39;;;;;;;3.30;2.77;;;;;;;;;;4952092;29;20249;-67
2023/07/30 12:54:06;;;;;;;3.40;2.00;;;;;;;;;;4949333;29;20202;-67
2023/07/30 12:56:33;;;;;;;3.40;2.60;;;;;;;;;;4932769;29;20191;-67
2023/07/30 12:59:03;;;;;;;3.20;2.17;;;;;;;;;;4931748;29;20191;-64
2023/07/30 13:01:29;;;;;;;3.33;2.30;;;;;;;;;;4932911;29;20228;-67
2023/07/30 13:03:56;;;;;;;4.60;2.13;;;;;;;;;;4933026;29;20246;-67
2023/07/30 13:06:23;;;;;;;2.73;2.13;;;;;;;;;;4932724;29;20194;-67
2023/07/30 13:08:50;;;;;;;2.47;2.17;;;;;;;;;;4932686;29;20227;-67
2023/07/30 13:11:16;;;;;;;3.97;2.40;;;;;;;;;;4932835;29;20226;-65
2023/07/30 13:13:43;;;;;;;2.27;1.83;;;;;;;;;;4932347;29;20195;-66
2023/07/30 13:16:10;;;;;;;4.27;2.17;;;;;;;;;;4932844;29;20297;-66
2023/07/30 13:18:56;;;;;;;2.40;2.07;;;;;;;;;;4932371;29;20207;-66
2023/07/30 13:21:23;;;;;;;2.63;1.90;;;;;;;;;;4932233;29;20198;-66
2023/07/30 13:24:07;;;;;;;2.50;2.07;;;;;;;;;;4932487;29;20191;-66
2023/07/30 13:26:35;;;;;;;2.87;2.00;;;;;;;;;;4933501;29;20191;-66
2023/07/30 13:29:19;;;;;;;2.20;2.00;;;;;;;;;;4934051;29;20253;-66
2023/07/30 13:31:46;;;;;;;3.47;1.87;;;;;;;;;;4900765;29;20210;-65
2023/07/30 13:34:12;;;;;;;2.47;1.80;;;;;;;;;;4932127;29;20171;-65
2023/07/30 13:36:40;;;;;;;2.13;1.87;;;;;;;;;;4932290;29;20207;-66
2023/07/30 13:39:06;;;;;;;2.70;2.00;;;;;;;;;;4932989;29;20194;-66
2023/07/30 13:41:33;;;;;;;2.23;1.80;;;;;;;;;;4933560;29;20182;-66
2023/07/30 13:44:02;;;;;;;3.37;1.77;;;;;;;;;;4933338;29;20194;-66
2023/07/30 13:46:29;;;;;;;2.73;1.80;;;;;;;;;;4931800;29;20231;-66
2023/07/30 13:48:56;;;;;;;4.20;1.77;;;;;;;;;;4932404;29;20202;-66
2023/07/30 13:51:22;;;;;;;2.97;2.20;;;;;;;;;;4931906;29;20257;-65
2023/07/30 13:53:49;;;;;;;3.00;1.80;;;;;;;;;;4932622;29;20254;-66
2023/07/30 13:56:33;;;;;;;2.30;1.60;;;;;;;;;;4951163;29;20179;-66
2023/07/30 13:59:00;;;;;;;1.83;1.57;;;;;;;;;;4951267;29;20253;-66
2023/07/30 14:01:30;;;;;;;3.93;1.63;;;;;;;;;;4951123;29;20218;-66
2023/07/30 14:03:56;;;;;;;3.70;1.80;;;;;;;;;;4951100;29;20222;-66
2023/07/30 14:06:23;;;;;;;2.50;1.73;;;;;;;;;;4951424;29;20190;-66
2023/07/30 14:08:50;;;;;;;2.87;1.80;;;;;;;;;;4951286;29;20191;-66
2023/07/30 14:11:16;;;;;;;1.90;1.70;;;;;;;;;;4951092;29;20218;-66
2023/07/30 14:13:43;;;;;;;2.00;1.73;;;;;;;;;;4950810;29;20195;-66
2023/07/30 14:16:10;;;;;;;2.30;1.57;;;;;;;;;;4951038;29;20277;-66
2023/07/30 14:18:38;;;;;;;2.40;1.93;;;;;;;;;;4950950;29;20191;-66
2023/07/30 14:21:05;;;;;;;2.80;1.80;;;;;;;;;;4951171;29;20200;-66
2023/07/30 14:23:49;;;;;;;1.73;1.60;;;;;;;;;;4951815;29;20183;-66
2023/07/30 14:26:16;;;;;;;1.60;1.43;;;;;;;;;;4952681;29;20211;-66
2023/07/30 14:28:42;;;;;;;2.63;1.80;;;;;;;;;;4951954;29;20209;-66
2023/07/30 14:31:09;;;;;;;1.70;1.60;;;;;;;;;;4950586;28;20223;-66
2023/07/30 14:33:36;;;;;;;3.37;2.20;;;;;;;;;;4951542;28;20198;-66
2023/07/30 14:36:03;;;;;;;4.27;2.70;;;;;;;;;;4937339;29;20194;-66
2023/07/30 14:38:33;;;;;;;3.63;2.20;;;;;;;;;;4955028;29;20233;-66
2023/07/30 14:41:01;;;;;;;3.77;2.00;;;;;;;;;;4954580;29;20202;-66
2023/07/30 14:43:28;;;;;;;6.30;2.37;;;;;;;;;;4954570;29;20192;-66
2023/07/30 14:45:54;;;;;;;4.43;2.30;;;;;;;;;;4954467;29;20283;-66
2023/07/30 14:48:21;;;;;;;4.03;2.40;;;;;;;;;;4954163;29;21088;-65
2023/07/30 14:50:48;;;;;;;4.27;1.90;;;;;;;;;;4954189;29;20280;-65
2023/07/30 14:53:15;;;;;;;2.83;1.97;;;;;;;;;;4954731;29;20194;-66
2023/07/30 14:55:42;;;;;;;4.27;2.80;;;;;;;;;;4938782;29;20659;-66
2023/07/30 14:58:26;;;;;;;5.33;3.00;;;;;;;;;;4936227;29;20178;-66
2023/07/30 15:00:52;;;;;;;4.70;2.40;;;;;;;;;;4936546;29;20191;-66
2023/07/30 15:03:19;;;;;;;8.10;4.37;;;;;;;;;;4936247;29;20201;-66
2023/07/30 15:05:46;;;;;;;5.77;3.47;;;;;;;;;;4934991;29;20534;-66
2023/07/30 15:08:13;;;;;;;8.23;4.07;;;;;;;;;;4934939;29;20187;-66
2023/07/30 15:10:39;;;;;;;4.20;2.73;;;;;;;;;;4934754;29;20686;-66
2023/07/30 15:13:06;;;;;;;6.77;3.83;;;;;;;;;;4935004;29;20260;-66
2023/07/30 15:15:33;;;;;;;6.93;2.70;;;;;;;;;;4934906;29;20195;-66
2023/07/30 15:18:17;;;;;;;4.60;2.60;;;;;;;;;;4934740;29;20174;-67
2023/07/30 15:20:44;;;;;;;3.93;2.80;;;;;;;;;;4934637;29;20190;-66
2023/07/30 15:23:28;;;;;;;5.83;2.77;;;;;;;;;;4935225;29;20197;-66
2023/07/30 15:25:55;;;;;;;9.37;4.40;;;;;;;;;;4934391;29;20620;-66
2023/07/30 15:28:40;;;;;;;3.57;2.70;;;;;;;;;;4934497;29;20587;-66